sensor_id;sensor_type;location;lat;lon;timestamp;temperature;humidity
63802;DHT22;49949;43.060;25.624;2023-11-21T00:01:19;1.40;99.90
63802;DHT22;49949;43.060;25.624;2023-11-21T00:03:45;1.40;99.90
63802;DHT22;49949;43.060;25.624;2023-11-21T00:06:10;1.40;99.90
63802;DHT22;49949;43.060;25.624;2023-11-21T00:08:36;1.40;99.90
63802;DHT22;49949;43.060;25.624;2023-11-21T00:11:02;1.40;99.90
63802;DHT22;49949;43.060;25.624;2023-11-21T00:13:31;1.40;99.90
63802;DHT22;49949;43.060;25.624;2023-11-21T00:15:57;1.40;99.90
63802;DHT22;49949;43.060;25.624;2023-11-21T00:18:22;1.40;99.90
63802;DHT22;49949;43.060;25.624;2023-11-21T00:20:48;1.40;99.90
63802;DHT22;49949;43.060;25.624;2023-11-21T00:23:14;1.40;99.90
63802;DHT22;49949;43.060;25.624;2023-11-21T00:25:39;1.40;99.90
63802;DHT22;49949;43.060;25.624;2023-11-21T00:28:05;1.40;99.90
63802;DHT22;49949;43.060;25.624;2023-11-21T00:30:31;1.40;99.90
63802;DHT22;49949;43.060;25.624;2023-11-21T00:32:57;1.40;99.90
63802;DHT22;49949;43.060;25.624;2023-11-21T00:35:23;1.30;99.90
63802;DHT22;49949;43.060;25.624;2023-11-21T00:37:48;1.30;99.90
63802;DHT22;49949;43.060;25.624;2023-11-21T00:40:15;1.30;99.90
63802;DHT22;49949;43.060;25.624;2023-11-21T00:42:41;1.30;99.90
63802;DHT22;49949;43.060;25.624;2023-11-21T00:45:07;1.30;99.90
63802;DHT22;49949;43.060;25.624;2023-11-21T00:47:33;1.20;99.90
63802;DHT22;49949;43.060;25.624;2023-11-21T00:49:59;1.20;99.90
63802;DHT22;49949;43.060;25.624;2023-11-21T00:52:25;1.20;99.90
63802;DHT22;49949;43.060;25.624;2023-11-21T00:54:50;1.10;99.90
63802;DHT22;49949;43.060;25.624;2023-11-21T00:57:16;1.10;99.90
63802;DHT22;49949;43.060;25.624;2023-11-21T00:59:42;1.10;99.90
63802;DHT22;49949;43.060;25.624;2023-11-21T01:02:07;1.10;99.90
63802;DHT22;49949;43.060;25.624;2023-11-21T01:04:36;1.00;99.90
63802;DHT22;49949;43.060;25.624;2023-11-21T01:07:01;1.00;99.90
63802;DHT22;49949;43.060;25.624;2023-11-21T01:09:27;1.00;99.90
63802;DHT22;49949;43.060;25.624;2023-11-21T01:11:53;0.90;99.90
63802;DHT22;49949;43.060;25.624;2023-11-21T01:14:19;0.90;99.90
63802;DHT22;49949;43.060;25.624;2023-11-21T01:16:45;0.90;99.90
63802;DHT22;49949;43.060;25.624;2023-11-21T01:19:11;0.90;99.90
63802;DHT22;49949;43.060;25.624;2023-11-21T01:21:36;0.90;99.90
63802;DHT22;49949;43.060;25.624;2023-11-21T01:24:03;0.80;99.90
63802;DHT22;49949;43.060;25.624;2023-11-21T01:26:29;0.80;99.90
63802;DHT22;49949;43.060;25.624;2023-11-21T01:28:54;0.80;99.90
63802;DHT22;49949;43.060;25.624;2023-11-21T01:31:20;0.80;99.90
63802;DHT22;49949;43.060;25.624;2023-11-21T01:33:46;0.80;99.90
63802;DHT22;49949;43.060;25.624;2023-11-21T01:36:12;0.80;99.90
63802;DHT22;49949;43.060;25.624;2023-11-21T01:38:37;0.80;99.90
63802;DHT22;49949;43.060;25.624;2023-11-21T01:41:04;0.80;99.90
63802;DHT22;49949;43.060;25.624;2023-11-21T01:43:30;0.80;99.90
63802;DHT22;49949;43.060;25.624;2023-11-21T01:45:57;0.70;99.90
63802;DHT22;49949;43.060;25.624;2023-11-21T01:48:24;0.80;99.90
63802;DHT22;49949;43.060;25.624;2023-11-21T01:50:51;0.80;99.90
63802;DHT22;49949;43.060;25.624;2023-11-21T01:53:17;0.80;99.90
63802;DHT22;49949;43.060;25.624;2023-11-21T01:55:45;0.80;99.90
63802;DHT22;49949;43.060;25.624;2023-11-21T01:58:12;0.80;99.90
63802;DHT22;49949;43.060;25.624;2023-11-21T02:00:40;0.80;99.90
63802;DHT22;49949;43.060;25.624;2023-11-21T02:03:05;0.80;99.90
63802;DHT22;49949;43.060;25.624;2023-11-21T02:05:32;0.70;99.90
63802;DHT22;49949;43.060;25.624;2023-11-21T02:07:58;0.70;99.90
63802;DHT22;49949;43.060;25.624;2023-11-21T02:10:24;0.60;99.90
63802;DHT22;49949;43.060;25.624;2023-11-21T02:12:50;0.60;99.90
63802;DHT22;49949;43.060;25.624;2023-11-21T02:15:16;0.60;99.90
63802;DHT22;49949;43.060;25.624;2023-11-21T02:17:46;0.60;99.90
63802;DHT22;49949;43.060;25.624;2023-11-21T02:20:13;0.50;99.90
63802;DHT22;49949;43.060;25.624;2023-11-21T02:22:52;0.50;99.90
63802;DHT22;49949;43.060;25.624;2023-11-21T02:25:32;0.50;99.90
63802;DHT22;49949;43.060;25.624;2023-11-21T02:28:00;0.50;99.90
63802;DHT22;49949;43.060;25.624;2023-11-21T02:30:27;0.50;99.90
63802;DHT22;49949;43.060;25.624;2023-11-21T02:32:57;0.50;99.90
63802;DHT22;49949;43.060;25.624;2023-11-21T02:35:23;0.50;99.90
63802;DHT22;49949;43.060;25.624;2023-11-21T02:37:51;0.50;99.90
63802;DHT22;49949;43.060;25.624;2023-11-21T02:40:17;0.50;99.90
63802;DHT22;49949;43.060;25.624;2023-11-21T02:42:47;0.50;99.90
63802;DHT22;49949;43.060;25.624;2023-11-21T02:45:16;0.50;99.90
63802;DHT22;49949;43.060;25.624;2023-11-21T02:47:45;0.60;99.90
63802;DHT22;49949;43.060;25.624;2023-11-21T02:50:11;0.60;99.90
63802;DHT22;49949;43.060;25.624;2023-11-21T02:52:37;0.60;99.90
63802;DHT22;49949;43.060;25.624;2023-11-21T02:55:03;0.50;99.90
63802;DHT22;49949;43.060;25.624;2023-11-21T02:57:29;0.50;99.90
63802;DHT22;49949;43.060;25.624;2023-11-21T02:59:55;0.60;99.90
63802;DHT22;49949;43.060;25.624;2023-11-21T03:02:20;0.60;99.90
63802;DHT22;49949;43.060;25.624;2023-11-21T03:04:46;0.60;99.90
63802;DHT22;49949;43.060;25.624;2023-11-21T03:07:15;0.50;99.90
63802;DHT22;49949;43.060;25.624;2023-11-21T03:09:40;0.50;99.90
63802;DHT22;49949;43.060;25.624;2023-11-21T03:12:06;0.50;99.90
63802;DHT22;49949;43.060;25.624;2023-11-21T03:14:32;0.50;99.90
63802;DHT22;49949;43.060;25.624;2023-11-21T03:16:58;0.50;99.90
63802;DHT22;49949;43.060;25.624;2023-11-21T03:19:23;0.50;99.90
63802;DHT22;49949;43.060;25.624;2023-11-21T03:21:49;0.50;99.90
63802;DHT22;49949;43.060;25.624;2023-11-21T03:24:15;0.40;99.90
63802;DHT22;49949;43.060;25.624;2023-11-21T03:26:45;0.40;99.90
63802;DHT22;49949;43.060;25.624;2023-11-21T03:29:10;0.30;99.90
63802;DHT22;49949;43.060;25.624;2023-11-21T03:31:36;0.30;99.90
63802;DHT22;49949;43.060;25.624;2023-11-21T03:34:02;0.30;99.90
63802;DHT22;49949;43.060;25.624;2023-11-21T03:36:27;0.40;99.90
63802;DHT22;49949;43.060;25.624;2023-11-21T03:38:53;0.40;99.90
63802;DHT22;49949;43.060;25.624;2023-11-21T03:41:19;0.30;99.90
63802;DHT22;49949;43.060;25.624;2023-11-21T03:43:44;0.30;99.90
63802;DHT22;49949;43.060;25.624;2023-11-21T03:46:10;0.30;99.90
63802;DHT22;49949;43.060;25.624;2023-11-21T03:48:37;0.40;99.90
63802;DHT22;49949;43.060;25.624;2023-11-21T03:51:03;0.30;99.90
63802;DHT22;49949;43.060;25.624;2023-11-21T03:53:28;0.30;99.90
63802;DHT22;49949;43.060;25.624;2023-11-21T03:55:54;0.20;99.90
63802;DHT22;49949;43.060;25.624;2023-11-21T03:58:20;0.30;99.90
63802;DHT22;49949;43.060;25.624;2023-11-21T04:00:47;0.20;99.90
63802;DHT22;49949;43.060;25.624;2023-11-21T04:03:14;0.20;99.90
63802;DHT22;49949;43.060;25.624;2023-11-21T04:05:40;0.20;99.90
63802;DHT22;49949;43.060;25.624;2023-11-21T04:08:06;0.20;99.90
63802;DHT22;49949;43.060;25.624;2023-11-21T04:10:32;0.20;99.90
63802;DHT22;49949;43.060;25.624;2023-11-21T04:12:58;0.20;99.90
63802;DHT22;49949;43.060;25.624;2023-11-21T04:15:24;0.20;99.90
63802;DHT22;49949;43.060;25.624;2023-11-21T04:17:49;0.10;99.90
63802;DHT22;49949;43.060;25.624;2023-11-21T04:20:15;0.10;99.90
63802;DHT22;49949;43.060;25.624;2023-11-21T04:22:43;0.10;99.90
63802;DHT22;49949;43.060;25.624;2023-11-21T04:25:14;0.10;99.90
63802;DHT22;49949;43.060;25.624;2023-11-21T04:27:40;0.10;99.90
63802;DHT22;49949;43.060;25.624;2023-11-21T04:30:09;0.10;99.90
63802;DHT22;49949;43.060;25.624;2023-11-21T04:32:35;0.10;99.90
63802;DHT22;49949;43.060;25.624;2023-11-21T04:35:01;0.10;99.90
63802;DHT22;49949;43.060;25.624;2023-11-21T04:37:27;0.00;99.90
63802;DHT22;49949;43.060;25.624;2023-11-21T04:39:53;0.00;99.90
63802;DHT22;49949;43.060;25.624;2023-11-21T04:42:19;0.00;99.90
63802;DHT22;49949;43.060;25.624;2023-11-21T04:44:44;0.00;99.90
63802;DHT22;49949;43.060;25.624;2023-11-21T04:47:10;0.00;99.90
63802;DHT22;49949;43.060;25.624;2023-11-21T04:49:36;0.00;99.90
63802;DHT22;49949;43.060;25.624;2023-11-21T04:52:02;0.00;99.90
63802;DHT22;49949;43.060;25.624;2023-11-21T04:54:30;0.00;99.90
63802;DHT22;49949;43.060;25.624;2023-11-21T04:56:56;-0.10;99.90
63802;DHT22;49949;43.060;25.624;2023-11-21T04:59:22;0.00;99.90
63802;DHT22;49949;43.060;25.624;2023-11-21T05:01:50;0.00;99.90
63802;DHT22;49949;43.060;25.624;2023-11-21T05:04:16;0.00;99.90
63802;DHT22;49949;43.060;25.624;2023-11-21T05:06:41;0.00;99.90
63802;DHT22;49949;43.060;25.624;2023-11-21T05:09:07;0.00;99.90
63802;DHT22;49949;43.060;25.624;2023-11-21T05:11:37;0.00;99.90
63802;DHT22;49949;43.060;25.624;2023-11-21T05:14:03;-0.10;99.90
63802;DHT22;49949;43.060;25.624;2023-11-21T05:16:30;-0.10;99.90
63802;DHT22;49949;43.060;25.624;2023-11-21T05:18:56;0.00;99.90
63802;DHT22;49949;43.060;25.624;2023-11-21T05:21:29;0.00;99.90
63802;DHT22;49949;43.060;25.624;2023-11-21T05:23:56;0.00;99.90
63802;DHT22;49949;43.060;25.624;2023-11-21T05:26:22;0.00;99.90
63802;DHT22;49949;43.060;25.624;2023-11-21T05:28:48;0.00;99.90
63802;DHT22;49949;43.060;25.624;2023-11-21T05:31:13;0.00;99.90
63802;DHT22;49949;43.060;25.624;2023-11-21T05:33:40;0.10;99.90
63802;DHT22;49949;43.060;25.624;2023-11-21T05:36:07;0.10;99.90
63802;DHT22;49949;43.060;25.624;2023-11-21T05:38:34;0.10;99.90
63802;DHT22;49949;43.060;25.624;2023-11-21T05:41:01;0.20;99.90
63802;DHT22;49949;43.060;25.624;2023-11-21T05:43:26;0.20;99.90
63802;DHT22;49949;43.060;25.624;2023-11-21T05:45:53;0.20;99.90
63802;DHT22;49949;43.060;25.624;2023-11-21T05:48:19;0.30;99.90
63802;DHT22;49949;43.060;25.624;2023-11-21T05:50:46;0.40;99.90
63802;DHT22;49949;43.060;25.624;2023-11-21T05:53:13;0.40;99.90
63802;DHT22;49949;43.060;25.624;2023-11-21T05:55:41;0.50;99.90
63802;DHT22;49949;43.060;25.624;2023-11-21T05:58:07;0.50;99.90
63802;DHT22;49949;43.060;25.624;2023-11-21T06:00:33;0.60;99.90
63802;DHT22;49949;43.060;25.624;2023-11-21T06:02:59;0.70;99.90
63802;DHT22;49949;43.060;25.624;2023-11-21T06:05:26;0.70;99.90
63802;DHT22;49949;43.060;25.624;2023-11-21T06:07:52;0.80;99.90
63802;DHT22;49949;43.060;25.624;2023-11-21T06:10:20;1.00;99.90
63802;DHT22;49949;43.060;25.624;2023-11-21T06:12:46;1.00;99.90
63802;DHT22;49949;43.060;25.624;2023-11-21T06:15:12;1.00;99.90
63802;DHT22;49949;43.060;25.624;2023-11-21T06:17:39;1.10;99.90
63802;DHT22;49949;43.060;25.624;2023-11-21T06:20:09;1.10;99.90
63802;DHT22;49949;43.060;25.624;2023-11-21T06:22:41;1.20;99.90
63802;DHT22;49949;43.060;25.624;2023-11-21T06:25:08;1.30;99.90
63802;DHT22;49949;43.060;25.624;2023-11-21T06:27:39;1.30;99.90
63802;DHT22;49949;43.060;25.624;2023-11-21T06:30:06;1.30;99.90
63802;DHT22;49949;43.060;25.624;2023-11-21T06:32:32;1.40;99.90
63802;DHT22;49949;43.060;25.624;2023-11-21T06:34:58;1.40;99.90
63802;DHT22;49949;43.060;25.624;2023-11-21T06:37:26;1.40;99.90
63802;DHT22;49949;43.060;25.624;2023-11-21T06:39:52;1.40;99.90
63802;DHT22;49949;43.060;25.624;2023-11-21T06:42:18;1.50;99.90
63802;DHT22;49949;43.060;25.624;2023-11-21T06:44:48;1.50;99.90
63802;DHT22;49949;43.060;25.624;2023-11-21T06:47:14;1.60;99.90
63802;DHT22;49949;43.060;25.624;2023-11-21T06:49:42;1.60;99.90
63802;DHT22;49949;43.060;25.624;2023-11-21T06:52:08;1.70;99.90
63802;DHT22;49949;43.060;25.624;2023-11-21T06:54:34;1.80;99.90
63802;DHT22;49949;43.060;25.624;2023-11-21T06:57:00;1.90;99.90
63802;DHT22;49949;43.060;25.624;2023-11-21T06:59:28;1.90;99.90
63802;DHT22;49949;43.060;25.624;2023-11-21T07:01:55;2.10;99.90
63802;DHT22;49949;43.060;25.624;2023-11-21T07:04:21;2.10;99.90
63802;DHT22;49949;43.060;25.624;2023-11-21T07:06:46;2.30;99.90
63802;DHT22;49949;43.060;25.624;2023-11-21T07:09:12;2.30;99.90
63802;DHT22;49949;43.060;25.624;2023-11-21T07:11:38;2.40;99.90
63802;DHT22;49949;43.060;25.624;2023-11-21T07:14:04;2.50;99.90
63802;DHT22;49949;43.060;25.624;2023-11-21T07:16:35;2.60;99.90
63802;DHT22;49949;43.060;25.624;2023-11-21T07:19:06;2.70;99.90
63802;DHT22;49949;43.060;25.624;2023-11-21T07:21:33;2.80;99.90
63802;DHT22;49949;43.060;25.624;2023-11-21T07:24:00;2.80;99.90
63802;DHT22;49949;43.060;25.624;2023-11-21T07:26:27;2.90;99.90
63802;DHT22;49949;43.060;25.624;2023-11-21T07:28:53;3.10;99.90
63802;DHT22;49949;43.060;25.624;2023-11-21T07:31:19;3.10;99.90
63802;DHT22;49949;43.060;25.624;2023-11-21T07:33:46;3.30;99.90
63802;DHT22;49949;43.060;25.624;2023-11-21T07:36:15;3.40;99.90
63802;DHT22;49949;43.060;25.624;2023-11-21T07:38:41;3.60;99.90
63802;DHT22;49949;43.060;25.624;2023-11-21T07:41:08;3.80;99.90
63802;DHT22;49949;43.060;25.624;2023-11-21T07:43:35;3.90;99.90
63802;DHT22;49949;43.060;25.624;2023-11-21T07:46:04;4.00;99.90
63802;DHT22;49949;43.060;25.624;2023-11-21T07:48:33;4.20;99.90
63802;DHT22;49949;43.060;25.624;2023-11-21T07:51:02;4.30;99.90
63802;DHT22;49949;43.060;25.624;2023-11-21T07:53:29;4.50;99.90
63802;DHT22;49949;43.060;25.624;2023-11-21T07:56:00;4.70;99.90
63802;DHT22;49949;43.060;25.624;2023-11-21T07:58:27;4.80;99.90
63802;DHT22;49949;43.060;25.624;2023-11-21T08:00:53;5.00;99.90
63802;DHT22;49949;43.060;25.624;2023-11-21T08:03:19;5.30;99.90
63802;DHT22;49949;43.060;25.624;2023-11-21T08:05:45;5.50;99.90
63802;DHT22;49949;43.060;25.624;2023-11-21T08:08:11;5.70;99.90
63802;DHT22;49949;43.060;25.624;2023-11-21T08:10:36;5.90;99.90
63802;DHT22;49949;43.060;25.624;2023-11-21T08:13:03;6.00;99.90
63802;DHT22;49949;43.060;25.624;2023-11-21T08:15:29;6.10;99.90
63802;DHT22;49949;43.060;25.624;2023-11-21T08:17:57;6.20;99.90
63802;DHT22;49949;43.060;25.624;2023-11-21T08:20:24;6.30;99.90
63802;DHT22;49949;43.060;25.624;2023-11-21T08:22:50;6.40;99.90
63802;DHT22;49949;43.060;25.624;2023-11-21T08:25:18;6.50;99.90
63802;DHT22;49949;43.060;25.624;2023-11-21T08:27:45;6.70;99.90
63802;DHT22;49949;43.060;25.624;2023-11-21T08:30:12;6.80;99.90
63802;DHT22;49949;43.060;25.624;2023-11-21T08:32:39;6.90;99.90
63802;DHT22;49949;43.060;25.624;2023-11-21T08:35:07;7.00;99.90
63802;DHT22;49949;43.060;25.624;2023-11-21T08:37:33;7.20;99.90
63802;DHT22;49949;43.060;25.624;2023-11-21T08:40:05;7.30;99.90
63802;DHT22;49949;43.060;25.624;2023-11-21T08:42:35;7.50;99.90
63802;DHT22;49949;43.060;25.624;2023-11-21T08:45:01;7.60;99.90
63802;DHT22;49949;43.060;25.624;2023-11-21T08:47:27;7.80;99.90
63802;DHT22;49949;43.060;25.624;2023-11-21T08:49:53;7.90;99.90
63802;DHT22;49949;43.060;25.624;2023-11-21T08:52:19;8.10;99.90
63802;DHT22;49949;43.060;25.624;2023-11-21T08:54:48;8.40;99.90
63802;DHT22;49949;43.060;25.624;2023-11-21T08:57:14;8.50;99.90
63802;DHT22;49949;43.060;25.624;2023-11-21T08:59:41;8.70;99.90
63802;DHT22;49949;43.060;25.624;2023-11-21T09:02:07;8.90;99.90
63802;DHT22;49949;43.060;25.624;2023-11-21T09:04:33;9.10;99.90
63802;DHT22;49949;43.060;25.624;2023-11-21T09:06:59;9.30;99.90
63802;DHT22;49949;43.060;25.624;2023-11-21T09:09:25;9.40;99.90
63802;DHT22;49949;43.060;25.624;2023-11-21T09:11:51;9.60;99.90
63802;DHT22;49949;43.060;25.624;2023-11-21T09:14:16;9.60;99.90
63802;DHT22;49949;43.060;25.624;2023-11-21T09:16:43;9.70;99.90
63802;DHT22;49949;43.060;25.624;2023-11-21T09:19:09;9.80;99.90
63802;DHT22;49949;43.060;25.624;2023-11-21T09:21:34;9.90;99.90
63802;DHT22;49949;43.060;25.624;2023-11-21T09:24:01;9.90;99.90
63802;DHT22;49949;43.060;25.624;2023-11-21T09:26:28;9.90;99.90
63802;DHT22;49949;43.060;25.624;2023-11-21T09:28:55;9.90;99.90
63802;DHT22;49949;43.060;25.624;2023-11-21T09:31:22;10.00;99.90
63802;DHT22;49949;43.060;25.624;2023-11-21T09:33:49;10.10;99.90
63802;DHT22;49949;43.060;25.624;2023-11-21T09:36:15;10.30;99.90
63802;DHT22;49949;43.060;25.624;2023-11-21T09:38:41;10.50;99.90
63802;DHT22;49949;43.060;25.624;2023-11-21T09:41:19;10.70;99.90
63802;DHT22;49949;43.060;25.624;2023-11-21T09:43:47;10.90;99.90
63802;DHT22;49949;43.060;25.624;2023-11-21T09:46:16;11.10;99.90
63802;DHT22;49949;43.060;25.624;2023-11-21T09:48:50;11.30;99.90
63802;DHT22;49949;43.060;25.624;2023-11-21T09:51:19;11.50;99.90
63802;DHT22;49949;43.060;25.624;2023-11-21T09:53:49;11.60;99.90
63802;DHT22;49949;43.060;25.624;2023-11-21T09:56:18;11.80;99.90
63802;DHT22;49949;43.060;25.624;2023-11-21T09:58:51;11.90;99.90
63802;DHT22;49949;43.060;25.624;2023-11-21T10:01:19;12.10;99.90
63802;DHT22;49949;43.060;25.624;2023-11-21T10:03:44;12.20;99.90
63802;DHT22;49949;43.060;25.624;2023-11-21T10:06:12;12.30;99.90
63802;DHT22;49949;43.060;25.624;2023-11-21T10:08:40;12.50;99.90
63802;DHT22;49949;43.060;25.624;2023-11-21T10:11:07;12.50;99.90
63802;DHT22;49949;43.060;25.624;2023-11-21T10:13:37;12.70;99.90
63802;DHT22;49949;43.060;25.624;2023-11-21T10:16:04;12.80;99.90
63802;DHT22;49949;43.060;25.624;2023-11-21T10:18:32;12.80;99.90
63802;DHT22;49949;43.060;25.624;2023-11-21T10:21:00;12.90;99.90
63802;DHT22;49949;43.060;25.624;2023-11-21T10:23:27;12.90;99.90
63802;DHT22;49949;43.060;25.624;2023-11-21T10:25:53;12.90;99.90
63802;DHT22;49949;43.060;25.624;2023-11-21T10:28:20;13.00;99.90
63802;DHT22;49949;43.060;25.624;2023-11-21T10:30:46;13.10;99.90
63802;DHT22;49949;43.060;25.624;2023-11-21T10:33:12;13.20;99.90
63802;DHT22;49949;43.060;25.624;2023-11-21T10:35:44;13.40;99.90
63802;DHT22;49949;43.060;25.624;2023-11-21T10:38:13;13.60;99.90
63802;DHT22;49949;43.060;25.624;2023-11-21T10:40:40;13.70;99.90
63802;DHT22;49949;43.060;25.624;2023-11-21T10:43:08;13.90;99.90
63802;DHT22;49949;43.060;25.624;2023-11-21T10:45:36;14.10;99.90
63802;DHT22;49949;43.060;25.624;2023-11-21T10:48:05;14.40;99.90
63802;DHT22;49949;43.060;25.624;2023-11-21T10:50:34;14.50;99.90
63802;DHT22;49949;43.060;25.624;2023-11-21T10:53:04;14.80;99.90
63802;DHT22;49949;43.060;25.624;2023-11-21T10:55:32;15.00;99.90
63802;DHT22;49949;43.060;25.624;2023-11-21T10:58:02;15.30;99.90
63802;DHT22;49949;43.060;25.624;2023-11-21T11:00:30;15.50;99.90
63802;DHT22;49949;43.060;25.624;2023-11-21T11:02:56;15.70;99.90
63802;DHT22;49949;43.060;25.624;2023-11-21T11:05:26;16.00;99.90
63802;DHT22;49949;43.060;25.624;2023-11-21T11:08:05;16.60;96.40
63802;DHT22;49949;43.060;25.624;2023-11-21T11:10:31;16.90;94.40
63802;DHT22;49949;43.060;25.624;2023-11-21T11:12:58;17.10;94.10
63802;DHT22;49949;43.060;25.624;2023-11-21T11:15:26;17.30;88.70
63802;DHT22;49949;43.060;25.624;2023-11-21T11:17:52;17.40;87.90
63802;DHT22;49949;43.060;25.624;2023-11-21T11:20:23;17.50;88.50
63802;DHT22;49949;43.060;25.624;2023-11-21T11:25:47;17.90;86.10
63802;DHT22;49949;43.060;25.624;2023-11-21T11:28:47;17.90;86.50
63802;DHT22;49949;43.060;25.624;2023-11-21T11:34:41;18.00;86.00
63802;DHT22;49949;43.060;25.624;2023-11-21T11:36:52;18.00;85.80
63802;DHT22;49949;43.060;25.624;2023-11-21T11:39:37;17.90;88.00
63802;DHT22;49949;43.060;25.624;2023-11-21T11:42:04;17.80;88.20
63802;DHT22;49949;43.060;25.624;2023-11-21T11:44:49;17.80;86.80
63802;DHT22;49949;43.060;25.624;2023-11-21T11:47:23;17.70;87.60
63802;DHT22;49949;43.060;25.624;2023-11-21T11:50:09;17.70;86.20
63802;DHT22;49949;43.060;25.624;2023-11-21T11:55:12;17.60;86.80
63802;DHT22;49949;43.060;25.624;2023-11-21T11:57:47;17.50;87.20
63802;DHT22;49949;43.060;25.624;2023-11-21T12:00:21;17.60;85.80
63802;DHT22;49949;43.060;25.624;2023-11-21T12:02:55;17.60;85.40
63802;DHT22;49949;43.060;25.624;2023-11-21T12:05:22;17.60;86.50
63802;DHT22;49949;43.060;25.624;2023-11-21T12:07:52;17.60;86.70
63802;DHT22;49949;43.060;25.624;2023-11-21T12:10:29;17.70;86.10
63802;DHT22;49949;43.060;25.624;2023-11-21T12:13:00;17.70;86.50
63802;DHT22;49949;43.060;25.624;2023-11-21T12:15:27;17.70;86.10
63802;DHT22;49949;43.060;25.624;2023-11-21T12:17:56;17.70;86.90
63802;DHT22;49949;43.060;25.624;2023-11-21T12:20:23;17.70;85.80
63802;DHT22;49949;43.060;25.624;2023-11-21T12:22:51;17.70;86.60
63802;DHT22;49949;43.060;25.624;2023-11-21T12:25:24;17.70;86.80
63802;DHT22;49949;43.060;25.624;2023-11-21T12:27:51;17.60;86.90
63802;DHT22;49949;43.060;25.624;2023-11-21T12:30:22;17.60;87.00
63802;DHT22;49949;43.060;25.624;2023-11-21T12:32:50;17.60;87.40
63802;DHT22;49949;43.060;25.624;2023-11-21T12:35:24;17.40;87.40
63802;DHT22;49949;43.060;25.624;2023-11-21T12:37:51;17.40;87.80
63802;DHT22;49949;43.060;25.624;2023-11-21T12:40:17;17.40;88.10
63802;DHT22;49949;43.060;25.624;2023-11-21T12:42:45;17.40;88.00
63802;DHT22;49949;43.060;25.624;2023-11-21T12:45:18;17.40;88.30
63802;DHT22;49949;43.060;25.624;2023-11-21T12:50:18;17.20;88.80
63802;DHT22;49949;43.060;25.624;2023-11-21T12:52:47;17.20;89.00
63802;DHT22;49949;43.060;25.624;2023-11-21T12:55:17;17.10;89.30
63802;DHT22;49949;43.060;25.624;2023-11-21T12:57:44;17.00;90.20
63802;DHT22;49949;43.060;25.624;2023-11-21T13:00:12;16.90;90.60
63802;DHT22;49949;43.060;25.624;2023-11-21T13:02:41;16.80;90.70
63802;DHT22;49949;43.060;25.624;2023-11-21T13:05:09;16.80;91.50
63802;DHT22;49949;43.060;25.624;2023-11-21T13:07:44;16.70;91.90
63802;DHT22;49949;43.060;25.624;2023-11-21T13:10:13;16.70;91.90
63802;DHT22;49949;43.060;25.624;2023-11-21T13:12:46;16.60;92.30
63802;DHT22;49949;43.060;25.624;2023-11-21T13:15:14;16.50;93.00
63802;DHT22;49949;43.060;25.624;2023-11-21T13:17:43;16.40;93.20
63802;DHT22;49949;43.060;25.624;2023-11-21T13:20:13;16.40;93.80
63802;DHT22;49949;43.060;25.624;2023-11-21T13:22:54;16.20;95.00
63802;DHT22;49949;43.060;25.624;2023-11-21T13:25:23;16.30;95.10
63802;DHT22;49949;43.060;25.624;2023-11-21T13:27:49;16.20;96.10
63802;DHT22;49949;43.060;25.624;2023-11-21T13:30:16;16.20;95.80
63802;DHT22;49949;43.060;25.624;2023-11-21T13:32:46;16.00;96.30
63802;DHT22;49949;43.060;25.624;2023-11-21T13:35:13;16.10;95.90
63802;DHT22;49949;43.060;25.624;2023-11-21T13:37:50;16.00;96.30
63802;DHT22;49949;43.060;25.624;2023-11-21T13:40:20;16.00;96.40
63802;DHT22;49949;43.060;25.624;2023-11-21T13:42:49;16.00;96.00
63802;DHT22;49949;43.060;25.624;2023-11-21T13:45:15;16.00;96.20
63802;DHT22;49949;43.060;25.624;2023-11-21T13:47:42;16.00;96.20
63802;DHT22;49949;43.060;25.624;2023-11-21T13:50:08;16.00;96.20
63802;DHT22;49949;43.060;25.624;2023-11-21T13:52:43;16.00;96.70
63802;DHT22;49949;43.060;25.624;2023-11-21T13:55:11;15.90;96.70
63802;DHT22;49949;43.060;25.624;2023-11-21T13:57:42;15.90;96.70
63802;DHT22;49949;43.060;25.624;2023-11-21T14:00:15;15.80;96.60
63802;DHT22;49949;43.060;25.624;2023-11-21T14:03:01;15.80;97.00
63802;DHT22;49949;43.060;25.624;2023-11-21T14:05:27;15.80;97.60
63802;DHT22;49949;43.060;25.624;2023-11-21T14:07:57;15.80;97.80
63802;DHT22;49949;43.060;25.624;2023-11-21T14:10:32;15.70;98.00
63802;DHT22;49949;43.060;25.624;2023-11-21T14:13:06;15.60;97.70
63802;DHT22;49949;43.060;25.624;2023-11-21T14:15:32;15.60;98.30
63802;DHT22;49949;43.060;25.624;2023-11-21T14:18:07;15.60;98.50
63802;DHT22;49949;43.060;25.624;2023-11-21T14:20:33;15.50;98.80
63802;DHT22;49949;43.060;25.624;2023-11-21T14:23:01;15.50;99.70
63802;DHT22;49949;43.060;25.624;2023-11-21T14:25:27;15.40;99.70
63802;DHT22;49949;43.060;25.624;2023-11-21T14:27:53;15.40;99.90
63802;DHT22;49949;43.060;25.624;2023-11-21T14:30:19;15.40;99.90
63802;DHT22;49949;43.060;25.624;2023-11-21T14:32:48;15.40;99.90
63802;DHT22;49949;43.060;25.624;2023-11-21T14:35:15;15.40;99.90
63802;DHT22;49949;43.060;25.624;2023-11-21T14:37:41;15.30;99.90
63802;DHT22;49949;43.060;25.624;2023-11-21T14:40:06;15.30;99.90
63802;DHT22;49949;43.060;25.624;2023-11-21T14:42:33;15.30;99.90
63802;DHT22;49949;43.060;25.624;2023-11-21T14:45:00;15.30;99.90
63802;DHT22;49949;43.060;25.624;2023-11-21T14:47:29;15.30;99.90
63802;DHT22;49949;43.060;25.624;2023-11-21T14:49:54;15.20;99.90
63802;DHT22;49949;43.060;25.624;2023-11-21T14:52:25;15.20;99.90
63802;DHT22;49949;43.060;25.624;2023-11-21T14:55:00;15.10;99.90
63802;DHT22;49949;43.060;25.624;2023-11-21T14:57:44;15.10;99.90
63802;DHT22;49949;43.060;25.624;2023-11-21T15:00:19;15.10;99.90
63802;DHT22;49949;43.060;25.624;2023-11-21T15:03:17;15.10;99.90
63802;DHT22;49949;43.060;25.624;2023-11-21T15:06:04;15.20;99.90
63802;DHT22;49949;43.060;25.624;2023-11-21T15:08:56;15.10;99.90
63802;DHT22;49949;43.060;25.624;2023-11-21T15:11:45;15.00;99.90
63802;DHT22;49949;43.060;25.624;2023-11-21T15:14:12;15.00;99.90
63802;DHT22;49949;43.060;25.624;2023-11-21T15:16:45;15.00;99.90
63802;DHT22;49949;43.060;25.624;2023-11-21T15:19:16;15.00;99.90
63802;DHT22;49949;43.060;25.624;2023-11-21T15:21:44;15.00;99.90
63802;DHT22;49949;43.060;25.624;2023-11-21T15:24:12;14.90;99.90
63802;DHT22;49949;43.060;25.624;2023-11-21T15:26:37;14.80;99.90
63802;DHT22;49949;43.060;25.624;2023-11-21T15:29:04;14.70;99.90
63802;DHT22;49949;43.060;25.624;2023-11-21T15:31:30;14.70;99.90
63802;DHT22;49949;43.060;25.624;2023-11-21T15:33:56;14.70;99.90
63802;DHT22;49949;43.060;25.624;2023-11-21T15:36:26;14.60;99.90
63802;DHT22;49949;43.060;25.624;2023-11-21T15:38:52;14.70;99.90
63802;DHT22;49949;43.060;25.624;2023-11-21T15:41:19;14.80;99.90